sensor_id;sensor_type;location;lat;lon;timestamp;pressure;altitude;pressure_sealevel;temperature;humidity
85315;BME280;75718;50.886;11.656;2024-03-07T00:00:08;99504.31;;;5.09;75.92
85315;BME280;75718;50.886;11.656;2024-03-07T00:02:41;99497.34;;;5.11;75.66
85315;BME280;75718;50.886;11.656;2024-03-07T00:05:07;99494.75;;;5.16;75.58
85315;BME280;75718;50.886;11.656;2024-03-07T00:07:33;99495.63;;;5.13;74.78
85315;BME280;75718;50.886;11.656;2024-03-07T00:09:59;99489.59;;;5.07;75.48
85315;BME280;75718;50.886;11.656;2024-03-07T00:12:25;99493.91;;;5.06;75.43
85315;BME280;75718;50.886;11.656;2024-03-07T00:14:52;99493.94;;;5.00;76.20
85315;BME280;75718;50.886;11.656;2024-03-07T00:17:17;99486.97;;;5.10;74.61
85315;BME280;75718;50.886;11.656;2024-03-07T00:19:44;99498.22;;;5.07;76.14
85315;BME280;75718;50.886;11.656;2024-03-07T00:22:09;99496.53;;;5.03;76.04
85315;BME280;75718;50.886;11.656;2024-03-07T00:24:35;99503.44;;;5.07;76.27
85315;BME280;75718;50.886;11.656;2024-03-07T00:27:00;99503.44;;;5.07;75.97
85315;BME280;75718;50.886;11.656;2024-03-07T00:29:26;99493.06;;;5.04;76.59
85315;BME280;75718;50.886;11.656;2024-03-07T00:31:53;99497.41;;;4.99;76.65
85315;BME280;75718;50.886;11.656;2024-03-07T00:34:18;99494.78;;;5.02;76.81
85315;BME280;75718;50.886;11.656;2024-03-07T00:36:45;99493.94;;;4.97;76.39
85315;BME280;75718;50.886;11.656;2024-03-07T00:39:11;99496.53;;;5.02;76.48
85315;BME280;75718;50.886;11.656;2024-03-07T00:41:40;99487.00;;;4.93;76.81
85315;BME280;75718;50.886;11.656;2024-03-07T00:44:06;99483.53;;;5.02;75.78
85315;BME280;75718;50.886;11.656;2024-03-07T00:46:34;99480.09;;;5.03;76.54
85315;BME280;75718;50.886;11.656;2024-03-07T00:48:59;99478.34;;;5.00;75.90
85315;BME280;75718;50.886;11.656;2024-03-07T00:51:25;99475.75;;;5.00;76.50
85315;BME280;75718;50.886;11.656;2024-03-07T00:53:50;99476.59;;;4.95;77.32
85315;BME280;75718;50.886;11.656;2024-03-07T00:56:16;99468.81;;;4.95;76.59
85315;BME280;75718;50.886;11.656;2024-03-07T00:58:41;99471.44;;;4.98;76.27
85315;BME280;75718;50.886;11.656;2024-03-07T01:01:06;99471.41;;;5.08;74.93
85315;BME280;75718;50.886;11.656;2024-03-07T01:03:31;99467.94;;;5.08;75.77
85315;BME280;75718;50.886;11.656;2024-03-07T01:05:57;99471.41;;;5.08;75.73
85315;BME280;75718;50.886;11.656;2024-03-07T01:08:22;99472.25;;;5.07;77.70
85315;BME280;75718;50.886;11.656;2024-03-07T01:10:47;99472.25;;;5.06;76.95
85315;BME280;75718;50.886;11.656;2024-03-07T01:13:14;99461.84;;;5.09;77.33
85315;BME280;75718;50.886;11.656;2024-03-07T01:15:45;99460.13;;;5.05;77.70
85315;BME280;75718;50.886;11.656;2024-03-07T01:18:10;99460.16;;;4.97;78.61
85315;BME280;75718;50.886;11.656;2024-03-07T01:20:35;99454.97;;;4.97;77.91
85315;BME280;75718;50.886;11.656;2024-03-07T01:23:00;99448.03;;;4.93;77.58
85315;BME280;75718;50.886;11.656;2024-03-07T01:25:26;99439.41;;;4.93;77.45
85315;BME280;75718;50.886;11.656;2024-03-07T01:27:52;99450.66;;;4.90;76.90
85315;BME280;75718;50.886;11.656;2024-03-07T01:30:17;99448.06;;;4.90;76.67
85315;BME280;75718;50.886;11.656;2024-03-07T01:32:42;99455.88;;;4.83;77.26
85315;BME280;75718;50.886;11.656;2024-03-07T01:35:08;99452.44;;;4.82;76.96
85315;BME280;75718;50.886;11.656;2024-03-07T01:37:33;99449.81;;;4.84;77.75
85315;BME280;75718;50.886;11.656;2024-03-07T01:39:59;99449.81;;;4.90;77.82
85315;BME280;75718;50.886;11.656;2024-03-07T01:42:24;99448.06;;;4.90;78.21
85315;BME280;75718;50.886;11.656;2024-03-07T01:44:50;99443.75;;;4.94;77.26
85315;BME280;75718;50.886;11.656;2024-03-07T01:47:17;99448.94;;;4.92;76.48
85315;BME280;75718;50.886;11.656;2024-03-07T01:49:42;99447.19;;;4.94;77.89
85315;BME280;75718;50.886;11.656;2024-03-07T01:52:08;99447.16;;;4.97;76.98
85315;BME280;75718;50.886;11.656;2024-03-07T01:54:35;99446.31;;;5.03;77.29
85315;BME280;75718;50.886;11.656;2024-03-07T01:57:01;99441.09;;;5.06;77.81
85315;BME280;75718;50.886;11.656;2024-03-07T01:59:26;99442.81;;;5.08;77.40
85315;BME280;75718;50.886;11.656;2024-03-07T02:01:55;99434.16;;;5.11;78.00
85315;BME280;75718;50.886;11.656;2024-03-07T02:04:20;99431.56;;;5.08;77.59
85315;BME280;75718;50.886;11.656;2024-03-07T02:06:46;99443.72;;;5.03;78.32
85315;BME280;75718;50.886;11.656;2024-03-07T02:09:11;99444.56;;;5.02;78.50
85315;BME280;75718;50.886;11.656;2024-03-07T02:11:36;99443.66;;;5.09;78.31
85315;BME280;75718;50.886;11.656;2024-03-07T02:14:02;99440.22;;;5.02;79.60
85315;BME280;75718;50.886;11.656;2024-03-07T02:16:27;99441.97;;;5.00;80.40
85315;BME280;75718;50.886;11.656;2024-03-07T02:18:53;99442.84;;;4.99;79.27
85315;BME280;75718;50.886;11.656;2024-03-07T02:21:19;99438.53;;;4.94;79.03
85315;BME280;75718;50.886;11.656;2024-03-07T02:23:44;99436.78;;;4.94;79.98
85315;BME280;75718;50.886;11.656;2024-03-07T02:26:10;99435.06;;;4.93;80.77
85315;BME280;75718;50.886;11.656;2024-03-07T02:28:35;99431.59;;;4.88;78.89
85315;BME280;75718;50.886;11.656;2024-03-07T02:31:01;99435.06;;;4.92;80.49
85315;BME280;75718;50.886;11.656;2024-03-07T02:33:26;99432.47;;;4.90;79.07
85315;BME280;75718;50.886;11.656;2024-03-07T02:35:51;99432.50;;;4.89;79.83
85315;BME280;75718;50.886;11.656;2024-03-07T02:38:18;99429.00;;;4.88;79.12
85315;BME280;75718;50.886;11.656;2024-03-07T02:40:44;99426.41;;;4.88;78.70
85315;BME280;75718;50.886;11.656;2024-03-07T02:43:11;99420.38;;;4.88;78.59
85315;BME280;75718;50.886;11.656;2024-03-07T02:45:37;99422.06;;;4.93;78.04
85315;BME280;75718;50.886;11.656;2024-03-07T02:48:02;99419.50;;;4.90;77.97
85315;BME280;75718;50.886;11.656;2024-03-07T02:50:29;99416.00;;;4.97;77.99
85315;BME280;75718;50.886;11.656;2024-03-07T02:52:55;99412.56;;;4.95;78.24
85315;BME280;75718;50.886;11.656;2024-03-07T02:55:20;99410.78;;;5.05;78.71
85315;BME280;75718;50.886;11.656;2024-03-07T02:57:45;99409.94;;;5.03;78.59
85315;BME280;75718;50.886;11.656;2024-03-07T03:00:11;99409.94;;;4.98;77.50
85315;BME280;75718;50.886;11.656;2024-03-07T03:02:46;99411.66;;;5.02;78.24
85315;BME280;75718;50.886;11.656;2024-03-07T03:05:13;99415.16;;;4.97;77.29
85315;BME280;75718;50.886;11.656;2024-03-07T03:07:39;99413.38;;;5.03;77.86
85315;BME280;75718;50.886;11.656;2024-03-07T03:10:05;99416.88;;;4.98;78.23
85315;BME280;75718;50.886;11.656;2024-03-07T03:12:35;99409.06;;;5.02;78.80
85315;BME280;75718;50.886;11.656;2024-03-07T03:15:02;99413.38;;;5.05;77.68
85315;BME280;75718;50.886;11.656;2024-03-07T03:17:30;99413.41;;;4.97;79.57
85315;BME280;75718;50.886;11.656;2024-03-07T03:19:55;99409.06;;;4.99;79.56
85315;BME280;75718;50.886;11.656;2024-03-07T03:22:21;99416.00;;;4.99;80.00
85315;BME280;75718;50.886;11.656;2024-03-07T03:24:46;99415.19;;;4.92;80.09
85315;BME280;75718;50.886;11.656;2024-03-07T03:27:12;99423.81;;;4.88;80.91
85315;BME280;75718;50.886;11.656;2024-03-07T03:29:37;99412.56;;;4.89;81.45
85315;BME280;75718;50.886;11.656;2024-03-07T03:32:02;99422.06;;;4.93;81.78
85315;BME280;75718;50.886;11.656;2024-03-07T03:34:28;99412.56;;;4.91;80.95
85315;BME280;75718;50.886;11.656;2024-03-07T03:36:53;99408.25;;;4.90;82.86
85315;BME280;75718;50.886;11.656;2024-03-07T03:39:18;99413.44;;;4.87;82.31
85315;BME280;75718;50.886;11.656;2024-03-07T03:41:46;99415.16;;;4.88;82.36
85315;BME280;75718;50.886;11.656;2024-03-07T03:44:11;99429.03;;;4.87;83.77
85315;BME280;75718;50.886;11.656;2024-03-07T03:46:36;99419.50;;;4.84;84.42
85315;BME280;75718;50.886;11.656;2024-03-07T03:49:02;99423.84;;;4.76;85.24
85315;BME280;75718;50.886;11.656;2024-03-07T03:51:27;99419.53;;;4.80;84.31
85315;BME280;75718;50.886;11.656;2024-03-07T03:53:53;99422.09;;;4.89;85.78
85315;BME280;75718;50.886;11.656;2024-03-07T03:56:18;99416.06;;;4.79;86.77
85315;BME280;75718;50.886;11.656;2024-03-07T03:58:43;99417.81;;;4.77;86.89
85315;BME280;75718;50.886;11.656;2024-03-07T04:01:09;99418.66;;;4.71;87.84
85315;BME280;75718;50.886;11.656;2024-03-07T04:03:38;99413.47;;;4.71;88.32
85315;BME280;75718;50.886;11.656;2024-03-07T04:06:03;99416.09;;;4.72;88.64
85315;BME280;75718;50.886;11.656;2024-03-07T04:08:30;99411.75;;;4.71;87.38
85315;BME280;75718;50.886;11.656;2024-03-07T04:10:55;99409.13;;;4.75;87.86
85315;BME280;75718;50.886;11.656;2024-03-07T04:13:20;99415.22;;;4.70;88.40
85315;BME280;75718;50.886;11.656;2024-03-07T04:15:47;99416.06;;;4.71;88.29
85315;BME280;75718;50.886;11.656;2024-03-07T04:18:12;99408.31;;;4.66;88.92
85315;BME280;75718;50.886;11.656;2024-03-07T04:20:38;99412.63;;;4.69;88.36
85315;BME280;75718;50.886;11.656;2024-03-07T04:23:04;99415.22;;;4.70;89.48
85315;BME280;75718;50.886;11.656;2024-03-07T04:25:30;99411.78;;;4.70;89.03
85315;BME280;75718;50.886;11.656;2024-03-07T04:27:58;99409.19;;;4.64;89.16
85315;BME280;75718;50.886;11.656;2024-03-07T04:30:23;99407.44;;;4.64;90.44
85315;BME280;75718;50.886;11.656;2024-03-07T04:32:48;99410.91;;;4.66;90.12
85315;BME280;75718;50.886;11.656;2024-03-07T04:35:14;99412.59;;;4.73;91.15
85315;BME280;75718;50.886;11.656;2024-03-07T04:37:39;99407.47;;;4.66;91.28
85315;BME280;75718;50.886;11.656;2024-03-07T04:40:09;99406.59;;;4.55;91.88
85315;BME280;75718;50.886;11.656;2024-03-07T04:42:42;99410.09;;;4.49;91.99
85315;BME280;75718;50.886;11.656;2024-03-07T04:45:09;99409.22;;;4.50;93.03
85315;BME280;75718;50.886;11.656;2024-03-07T04:47:36;99407.50;;;4.55;92.47
85315;BME280;75718;50.886;11.656;2024-03-07T04:50:01;99415.25;;;4.61;92.62
85315;BME280;75718;50.886;11.656;2024-03-07T04:52:27;99406.59;;;4.62;93.52
85315;BME280;75718;50.886;11.656;2024-03-07T04:54:52;99411.78;;;4.61;92.79
85315;BME280;75718;50.886;11.656;2024-03-07T04:57:17;99412.66;;;4.66;93.28
85315;BME280;75718;50.886;11.656;2024-03-07T04:59:44;99405.72;;;4.65;93.76
85315;BME280;75718;50.886;11.656;2024-03-07T05:02:09;99413.50;;;4.68;93.17
85315;BME280;75718;50.886;11.656;2024-03-07T05:04:34;99420.44;;;4.63;93.81
85315;BME280;75718;50.886;11.656;2024-03-07T05:07:01;99417.00;;;4.59;93.49
85315;BME280;75718;50.886;11.656;2024-03-07T05:09:27;99413.53;;;4.57;93.46
85315;BME280;75718;50.886;11.656;2024-03-07T05:14:28;99423.94;;;4.53;93.99
85315;BME280;75718;50.886;11.656;2024-03-07T05:16:54;99417.00;;;4.50;94.38
85315;BME280;75718;50.886;11.656;2024-03-07T05:19:33;99417.88;;;4.51;93.90
85315;BME280;75718;50.886;11.656;2024-03-07T05:21:59;99418.75;;;4.54;94.49
85315;BME280;75718;50.886;11.656;2024-03-07T05:24:25;99417.00;;;4.52;93.77
85315;BME280;75718;50.886;11.656;2024-03-07T05:26:50;99414.44;;;4.41;94.55
85315;BME280;75718;50.886;11.656;2024-03-07T05:29:18;99421.34;;;4.32;95.17
85315;BME280;75718;50.886;11.656;2024-03-07T05:31:43;99423.09;;;4.25;95.37
85315;BME280;75718;50.886;11.656;2024-03-07T05:34:15;99420.50;;;4.28;96.05
85315;BME280;75718;50.886;11.656;2024-03-07T05:36:43;99422.22;;;4.32;95.98
85315;BME280;75718;50.886;11.656;2024-03-07T05:39:14;99420.50;;;4.37;96.26
85315;BME280;75718;50.886;11.656;2024-03-07T05:41:41;99423.06;;;4.42;95.60
85315;BME280;75718;50.886;11.656;2024-03-07T05:44:06;99414.44;;;4.40;96.14
85315;BME280;75718;50.886;11.656;2024-03-07T05:46:38;99418.78;;;4.35;96.64
85315;BME280;75718;50.886;11.656;2024-03-07T05:49:09;99414.44;;;4.32;96.88
85315;BME280;75718;50.886;11.656;2024-03-07T05:51:35;99420.50;;;4.37;96.28
85315;BME280;75718;50.886;11.656;2024-03-07T05:54:01;99419.66;;;4.31;95.80
85315;BME280;75718;50.886;11.656;2024-03-07T05:56:27;99411.81;;;4.46;95.72
85315;BME280;75718;50.886;11.656;2024-03-07T05:58:52;99419.59;;;4.47;95.53
85315;BME280;75718;50.886;11.656;2024-03-07T06:01:18;99423.06;;;4.45;95.79
85315;BME280;75718;50.886;11.656;2024-03-07T06:03:46;99422.22;;;4.41;95.58
85315;BME280;75718;50.886;11.656;2024-03-07T06:06:13;99419.63;;;4.40;95.17
85315;BME280;75718;50.886;11.656;2024-03-07T06:08:39;99430.00;;;4.37;95.81
85315;BME280;75718;50.886;11.656;2024-03-07T06:11:07;99427.41;;;4.34;96.30
85315;BME280;75718;50.886;11.656;2024-03-07T06:13:33;99437.78;;;4.37;95.55
85315;BME280;75718;50.886;11.656;2024-03-07T06:15:58;99437.78;;;4.46;96.78
85315;BME280;75718;50.886;11.656;2024-03-07T06:18:23;99434.31;;;4.53;96.43
85315;BME280;75718;50.886;11.656;2024-03-07T06:20:49;99442.09;;;4.53;96.83
85315;BME280;75718;50.886;11.656;2024-03-07T06:23:14;99439.50;;;4.54;96.01
85315;BME280;75718;50.886;11.656;2024-03-07T06:25:41;99432.56;;;4.59;95.89
85315;BME280;75718;50.886;11.656;2024-03-07T06:28:17;99428.22;;;4.61;96.56
85315;BME280;75718;50.886;11.656;2024-03-07T06:30:44;99436.00;;;4.61;96.62
85315;BME280;75718;50.886;11.656;2024-03-07T06:33:13;99433.41;;;4.61;95.70
85315;BME280;75718;50.886;11.656;2024-03-07T06:35:39;99435.13;;;4.74;95.52
85315;BME280;75718;50.886;11.656;2024-03-07T06:38:07;99429.94;;;4.74;95.67
85315;BME280;75718;50.886;11.656;2024-03-07T06:40:33;99438.63;;;4.67;95.61
85315;BME280;75718;50.886;11.656;2024-03-07T06:42:59;99423.91;;;4.63;96.18
85315;BME280;75718;50.886;11.656;2024-03-07T06:45:24;99427.34;;;4.65;96.52
85315;BME280;75718;50.886;11.656;2024-03-07T06:47:50;99429.97;;;4.59;96.10
85315;BME280;75718;50.886;11.656;2024-03-07T06:50:18;99432.53;;;4.67;96.50
85315;BME280;75718;50.886;11.656;2024-03-07T06:52:48;99423.91;;;4.57;96.37
85315;BME280;75718;50.886;11.656;2024-03-07T06:55:17;99433.44;;;4.57;96.90
85315;BME280;75718;50.886;11.656;2024-03-07T06:57:44;99433.41;;;4.61;96.38
85315;BME280;75718;50.886;11.656;2024-03-07T07:00:14;99423.88;;;4.69;96.94
85315;BME280;75718;50.886;11.656;2024-03-07T07:02:44;99429.06;;;4.76;96.71
85315;BME280;75718;50.886;11.656;2024-03-07T07:05:09;99430.78;;;4.77;96.86
85315;BME280;75718;50.886;11.656;2024-03-07T07:07:46;99427.31;;;4.81;96.54
85315;BME280;75718;50.886;11.656;2024-03-07T07:10:13;99414.34;;;4.80;96.19
85315;BME280;75718;50.886;11.656;2024-03-07T07:12:50;99420.38;;;4.80;96.10
85315;BME280;75718;50.886;11.656;2024-03-07T07:15:18;99423.88;;;4.75;96.92
85315;BME280;75718;50.886;11.656;2024-03-07T07:17:47;99421.22;;;4.91;96.91
85315;BME280;75718;50.886;11.656;2024-03-07T07:20:16;99420.34;;;4.89;95.92
85315;BME280;75718;50.886;11.656;2024-03-07T07:22:43;99424.66;;;5.01;95.69
85315;BME280;75718;50.886;11.656;2024-03-07T07:25:08;99423.81;;;4.99;95.66
85315;BME280;75718;50.886;11.656;2024-03-07T07:27:40;99422.09;;;4.96;96.13
85315;BME280;75718;50.886;11.656;2024-03-07T07:30:07;99419.44;;;5.05;96.75
85315;BME280;75718;50.886;11.656;2024-03-07T07:32:33;99415.06;;;5.16;96.19
85315;BME280;75718;50.886;11.656;2024-03-07T07:34:58;99404.63;;;5.30;96.15
85315;BME280;75718;50.886;11.656;2024-03-07T07:37:23;99407.06;;;5.52;94.42
85315;BME280;75718;50.886;11.656;2024-03-07T07:39:48;99406.16;;;5.59;95.33
85315;BME280;75718;50.886;11.656;2024-03-07T07:42:14;99406.09;;;5.71;94.58
85315;BME280;75718;50.886;11.656;2024-03-07T07:44:40;99412.16;;;5.77;94.70
85315;BME280;75718;50.886;11.656;2024-03-07T07:47:05;99408.66;;;5.78;93.98
85315;BME280;75718;50.886;11.656;2024-03-07T07:49:31;99408.66;;;5.74;93.51
85315;BME280;75718;50.886;11.656;2024-03-07T07:51:56;99411.28;;;5.74;93.33
85315;BME280;75718;50.886;11.656;2024-03-07T07:54:21;99408.66;;;5.77;92.16
85315;BME280;75718;50.886;11.656;2024-03-07T07:56:47;99412.13;;;5.79;92.66
85315;BME280;75718;50.886;11.656;2024-03-07T07:59:13;99410.34;;;5.87;93.08
85315;BME280;75718;50.886;11.656;2024-03-07T08:01:38;99411.16;;;5.95;91.24
85315;BME280;75718;50.886;11.656;2024-03-07T08:04:04;99405.84;;;6.06;89.81
85315;BME280;75718;50.886;11.656;2024-03-07T08:06:29;99415.22;;;6.30;89.11
85315;BME280;75718;50.886;11.656;2024-03-07T08:08:55;99407.31;;;6.39;87.34
85315;BME280;75718;50.886;11.656;2024-03-07T08:11:20;99404.47;;;6.61;86.98
85315;BME280;75718;50.886;11.656;2024-03-07T08:13:45;99412.22;;;6.65;87.24
85315;BME280;75718;50.886;11.656;2024-03-07T08:16:14;99413.19;;;6.57;87.37
85315;BME280;75718;50.886;11.656;2024-03-07T08:18:39;99409.59;;;6.70;85.38
85315;BME280;75718;50.886;11.656;2024-03-07T08:21:05;99405.91;;;6.89;84.17
85315;BME280;75718;50.886;11.656;2024-03-07T08:23:30;99402.19;;;7.11;83.52
85315;BME280;75718;50.886;11.656;2024-03-07T08:25:56;99400.59;;;8.21;81.07
85315;BME280;75718;50.886;11.656;2024-03-07T08:28:22;99381.97;;;8.85;76.84
85315;BME280;75718;50.886;11.656;2024-03-07T08:30:47;99381.38;;;9.54;72.42
85315;BME280;75718;50.886;11.656;2024-03-07T08:33:12;99383.91;;;9.95;72.83
85315;BME280;75718;50.886;11.656;2024-03-07T08:35:38;99382.56;;;10.15;71.28
85315;BME280;75718;50.886;11.656;2024-03-07T08:38:04;99382.50;;;9.80;71.27
85315;BME280;75718;50.886;11.656;2024-03-07T08:40:30;99381.72;;;9.39;70.73
85315;BME280;75718;50.886;11.656;2024-03-07T08:43:00;99381.16;;;9.24;73.66
85315;BME280;75718;50.886;11.656;2024-03-07T08:45:26;99392.19;;;8.52;74.33
85315;BME280;75718;50.886;11.656;2024-03-07T08:47:53;99395.03;;;8.40;73.68
85315;BME280;75718;50.886;11.656;2024-03-07T08:50:22;99398.16;;;8.07;73.74
85315;BME280;75718;50.886;11.656;2024-03-07T08:52:49;99394.47;;;7.65;73.99
85315;BME280;75718;50.886;11.656;2024-03-07T08:55:22;99391.50;;;7.28;74.62
85315;BME280;75718;50.886;11.656;2024-03-07T08:57:48;99395.38;;;6.99;73.25
85315;BME280;75718;50.886;11.656;2024-03-07T09:00:15;99395.38;;;6.99;75.09
85315;BME280;75718;50.886;11.656;2024-03-07T09:02:50;99391.16;;;6.86;74.41
85315;BME280;75718;50.886;11.656;2024-03-07T09:05:17;99386.81;;;8.08;69.14
85315;BME280;75718;50.886;11.656;2024-03-07T09:07:42;99383.38;;;8.05;66.08
85315;BME280;75718;50.886;11.656;2024-03-07T09:10:08;99384.47;;;8.44;66.13
85315;BME280;75718;50.886;11.656;2024-03-07T09:12:34;99370.50;;;9.33;62.54
85315;BME280;75718;50.886;11.656;2024-03-07T09:14:59;99359.72;;;10.20;58.56
85315;BME280;75718;50.886;11.656;2024-03-07T09:17:25;99356.88;;;11.23;58.66
85315;BME280;75718;50.886;11.656;2024-03-07T09:19:50;99339.88;;;11.64;53.51
85315;BME280;75718;50.886;11.656;2024-03-07T09:22:15;99346.03;;;11.63;50.16
85315;BME280;75718;50.886;11.656;2024-03-07T09:24:41;99340.06;;;11.28;49.78
85315;BME280;75718;50.886;11.656;2024-03-07T09:27:06;99336.84;;;11.47;49.77
85315;BME280;75718;50.886;11.656;2024-03-07T09:29:31;99331.91;;;12.45;50.13
85315;BME280;75718;50.886;11.656;2024-03-07T09:31:56;99329.25;;;12.20;52.31
85315;BME280;75718;50.886;11.656;2024-03-07T09:34:24;99341.94;;;10.64;52.23
85315;BME280;75718;50.886;11.656;2024-03-07T09:36:50;99351.28;;;9.71;55.51
85315;BME280;75718;50.886;11.656;2024-03-07T09:39:16;99359.38;;;8.83;57.42
85315;BME280;75718;50.886;11.656;2024-03-07T09:41:42;99362.66;;;8.47;58.33
85315;BME280;75718;50.886;11.656;2024-03-07T09:44:14;99356.63;;;7.94;59.99
85315;BME280;75718;50.886;11.656;2024-03-07T09:46:47;99357.31;;;7.49;60.83
85315;BME280;75718;50.886;11.656;2024-03-07T09:49:14;99360.31;;;7.21;61.59
85315;BME280;75718;50.886;11.656;2024-03-07T09:51:39;99370.16;;;7.00;63.28
85315;BME280;75718;50.886;11.656;2024-03-07T09:54:05;99359.81;;;6.92;63.83
85315;BME280;75718;50.886;11.656;2024-03-07T09:56:31;99361.63;;;6.89;64.15
85315;BME280;75718;50.886;11.656;2024-03-07T09:59:03;99358.69;;;7.13;63.45
85315;BME280;75718;50.886;11.656;2024-03-07T10:01:30;99360.19;;;7.31;63.20
85315;BME280;75718;50.886;11.656;2024-03-07T10:04:00;99344.03;;;8.18;61.46
85315;BME280;75718;50.886;11.656;2024-03-07T10:06:35;99345.72;;;8.22;60.11
85315;BME280;75718;50.886;11.656;2024-03-07T10:09:00;99340.00;;;8.47;59.47
85315;BME280;75718;50.886;11.656;2024-03-07T10:11:25;99343.16;;;8.18;59.51
85315;BME280;75718;50.886;11.656;2024-03-07T10:13:52;99353.16;;;7.92;62.54
85315;BME280;75718;50.886;11.656;2024-03-07T10:16:18;99359.53;;;7.73;62.68
85315;BME280;75718;50.886;11.656;2024-03-07T10:18:43;99347.84;;;7.44;63.31
85315;BME280;75718;50.886;11.656;2024-03-07T10:21:10;99356.78;;;7.25;63.51
85315;BME280;75718;50.886;11.656;2024-03-07T10:23:36;99364.38;;;7.41;62.89
85315;BME280;75718;50.886;11.656;2024-03-07T10:26:04;99356.34;;;7.55;61.76
85315;BME280;75718;50.886;11.656;2024-03-07T10:28:29;99353.09;;;7.95;60.09
85315;BME280;75718;50.886;11.656;2024-03-07T10:30:56;99344.28;;;8.51;58.40
85315;BME280;75718;50.886;11.656;2024-03-07T10:33:26;99355.25;;;8.25;56.61
85315;BME280;75718;50.886;11.656;2024-03-07T10:35:52;99345.34;;;8.41;57.82
85315;BME280;75718;50.886;11.656;2024-03-07T10:38:18;99334.47;;;8.64;55.88
85315;BME280;75718;50.886;11.656;2024-03-07T10:40:46;99333.44;;;9.52;54.09
85315;BME280;75718;50.886;11.656;2024-03-07T10:43:12;99333.28;;;9.94;51.77
85315;BME280;75718;50.886;11.656;2024-03-07T10:45:49;99325.66;;;10.83;49.42
85315;BME280;75718;50.886;11.656;2024-03-07T10:48:18;99320.88;;;11.84;46.81
85315;BME280;75718;50.886;11.656;2024-03-07T10:51:06;99316.03;;;12.23;43.38
85315;BME280;75718;50.886;11.656;2024-03-07T10:56:29;99307.22;;;13.20;40.50
85315;BME280;75718;50.886;11.656;2024-03-07T10:59:16;99306.66;;;13.35;40.54
85315;BME280;75718;50.886;11.656;2024-03-07T11:01:57;99314.06;;;12.54;41.38
85315;BME280;75718;50.886;11.656;2024-03-07T11:04:24;99314.50;;;13.58;42.49
85315;BME280;75718;50.886;11.656;2024-03-07T11:06:50;99317.13;;;13.36;41.78
85315;BME280;75718;50.886;11.656;2024-03-07T11:09:15;99328.22;;;11.44;44.60
85315;BME280;75718;50.886;11.656;2024-03-07T11:11:48;99324.91;;;10.48;46.57
85315;BME280;75718;50.886;11.656;2024-03-07T11:14:14;99330.22;;;9.40;51.42
85315;BME280;75718;50.886;11.656;2024-03-07T11:16:41;99336.03;;;9.14;52.08
85315;BME280;75718;50.886;11.656;2024-03-07T11:19:26;99344.16;;;8.57;53.70
85315;BME280;75718;50.886;11.656;2024-03-07T11:22:02;99335.81;;;8.39;52.93
85315;BME280;75718;50.886;11.656;2024-03-07T11:24:39;99329.38;;;8.58;52.93
85315;BME280;75718;50.886;11.656;2024-03-07T11:27:04;99335.97;;;8.32;53.46
85315;BME280;75718;50.886;11.656;2024-03-07T11:32:01;99341.41;;;8.20;53.94
85315;BME280;75718;50.886;11.656;2024-03-07T11:34:29;99334.44;;;8.19;53.79
85315;BME280;75718;50.886;11.656;2024-03-07T11:36:55;99341.53;;;8.11;53.71
85315;BME280;75718;50.886;11.656;2024-03-07T11:39:41;99332.06;;;8.53;53.57
85315;BME280;75718;50.886;11.656;2024-03-07T11:42:08;99324.22;;;9.35;50.49
85315;BME280;75718;50.886;11.656;2024-03-07T11:44:34;99309.31;;;11.04;47.35
85315;BME280;75718;50.886;11.656;2024-03-07T11:47:05;99306.03;;;11.55;44.98
85315;BME280;75718;50.886;11.656;2024-03-07T11:49:34;99311.06;;;9.75;48.25
85315;BME280;75718;50.886;11.656;2024-03-07T11:52:01;99325.00;;;9.00;50.00
85315;BME280;75718;50.886;11.656;2024-03-07T11:54:30;99323.50;;;8.45;50.66
85315;BME280;75718;50.886;11.656;2024-03-07T11:56:56;99318.22;;;8.48;54.03
85315;BME280;75718;50.886;11.656;2024-03-07T11:59:23;99311.28;;;8.46;50.59
85315;BME280;75718;50.886;11.656;2024-03-07T12:01:53;99315.31;;;8.17;52.39
85315;BME280;75718;50.886;11.656;2024-03-07T12:04:18;99319.03;;;8.02;53.51
85315;BME280;75718;50.886;11.656;2024-03-07T12:06:51;99311.34;;;8.43;55.35
85315;BME280;75718;50.886;11.656;2024-03-07T12:09:16;99321.47;;;8.14;54.51
85315;BME280;75718;50.886;11.656;2024-03-07T12:11:49;99316.59;;;7.92;54.65
85315;BME280;75718;50.886;11.656;2024-03-07T12:14:17;99316.59;;;7.92;55.48
85315;BME280;75718;50.886;11.656;2024-03-07T12:16:43;99319.59;;;7.70;56.94
85315;BME280;75718;50.886;11.656;2024-03-07T12:19:08;99318.88;;;7.62;57.09
85315;BME280;75718;50.886;11.656;2024-03-07T12:21:36;99308.31;;;8.20;55.39
85315;BME280;75718;50.886;11.656;2024-03-07T12:24:11;99300.13;;;8.38;54.20
85315;BME280;75718;50.886;11.656;2024-03-07T12:26:37;99297.94;;;8.14;52.56
85315;BME280;75718;50.886;11.656;2024-03-07T12:29:12;99306.97;;;7.95;54.16
85315;BME280;75718;50.886;11.656;2024-03-07T12:31:41;99306.72;;;7.58;54.16
85315;BME280;75718;50.886;11.656;2024-03-07T12:34:08;99302.38;;;7.58;54.47
85315;BME280;75718;50.886;11.656;2024-03-07T12:36:35;99294.25;;;8.26;55.44
85315;BME280;75718;50.886;11.656;2024-03-07T12:39:21;99291.72;;;8.23;52.44
85315;BME280;75718;50.886;11.656;2024-03-07T12:41:50;99283.94;;;9.04;51.25
85315;BME280;75718;50.886;11.656;2024-03-07T12:44:18;99287.78;;;8.88;52.68
85315;BME280;75718;50.886;11.656;2024-03-07T12:46:46;99296.06;;;8.24;53.55
85315;BME280;75718;50.886;11.656;2024-03-07T12:49:12;99289.22;;;8.17;55.03
85315;BME280;75718;50.886;11.656;2024-03-07T12:51:40;99294.25;;;7.77;56.98
85315;BME280;75718;50.886;11.656;2024-03-07T12:54:07;99299.38;;;7.82;56.71
85315;BME280;75718;50.886;11.656;2024-03-07T12:56:37;99302.41;;;7.57;55.18
85315;BME280;75718;50.886;11.656;2024-03-07T12:59:03;99298.13;;;7.53;55.76
85315;BME280;75718;50.886;11.656;2024-03-07T13:01:30;99306.94;;;7.44;57.38
85315;BME280;75718;50.886;11.656;2024-03-07T13:03:55;99308.03;;;7.31;56.21
85315;BME280;75718;50.886;11.656;2024-03-07T13:06:21;99301.06;;;7.30;58.42